Time;durP1;ratioP1;P1;durP2;ratioP2;P2;SDS_P1;SDS_P2;PMS_P1;PMS_P2;Temp;Humidity;BMP_temperature;BMP_pressure;BME280_temperature;BME280_humidity;BME280_pressure;Samples;Min_cycle;Max_cycle;Signal;HPM_P1;HPM_P2
2022/10/12 00:01:37;;;;;;;26.40;20.00;;;11.20;96.10;;;11.51;82.13;98694.25;5147313;27;20468;-80
2022/10/12 00:04:05;;;;;;;21.17;18.90;;;11.40;96.00;;;11.45;81.94;98684.25;5161899;27;20463;-82
2022/10/12 00:06:32;;;;;;;24.90;19.37;;;11.40;95.50;;;11.39;82.73;98690.47;5134057;27;20471;-81
2022/10/12 00:08:59;;;;;;;22.53;20.03;;;11.40;95.60;;;11.29;83.45;98685.44;5147180;27;20830;-81
2022/10/12 00:11:29;;;;;;;26.67;20.40;;;11.30;95.50;;;11.19;82.99;98678.53;5137332;27;20473;-81
2022/10/12 00:13:58;;;;;;;23.77;19.53;;;11.30;96.10;;;11.29;83.66;98697.06;5133311;27;20483;-82
2022/10/12 00:16:30;;;;;;;26.27;20.90;;;11.10;97.10;;;11.28;83.84;98695.41;5166075;27;20429;-80
2022/10/12 00:18:59;;;;;;;27.03;20.93;;;11.10;98.30;;;11.22;84.38;98680.00;5127707;27;20469;-81
2022/10/12 00:21:28;;;;;;;23.20;20.70;;;11.00;98.50;;;11.37;83.32;98689.84;5147881;27;20480;-81
2022/10/12 00:23:58;;;;;;;28.37;19.40;;;11.10;98.80;;;10.98;83.41;98624.59;5134124;27;20491;-82
2022/10/12 00:26:26;;;;;;;24.50;20.27;;;11.20;96.90;;;11.24;83.17;98677.94;5126156;27;20464;-83
2022/10/12 00:28:58;;;;;;;22.80;20.13;;;11.20;96.50;;;11.37;83.02;98687.13;5129107;27;20442;-84
2022/10/12 00:31:27;;;;;;;25.60;19.87;;;11.20;95.90;;;11.24;83.73;98688.75;5113444;27;20521;-82
2022/10/12 00:33:55;;;;;;;23.37;20.20;;;11.10;96.80;;;11.20;83.79;98692.91;5120527;27;20452;-80
2022/10/12 00:36:26;;;;;;;22.93;20.40;;;11.00;97.70;;;11.22;83.98;98680.00;5118479;27;20541;-81
2022/10/12 00:38:55;;;;;;;25.43;19.73;;;11.00;98.60;;;11.32;83.17;98683.16;5112222;28;20445;-81
2022/10/12 00:41:27;;;;;;;25.57;19.67;;;11.20;97.10;;;11.03;83.34;98631.06;5122283;27;20947;-82
2022/10/12 00:43:55;;;;;;;25.23;19.07;;;11.20;96.40;;;11.30;83.20;98682.53;5115265;27;20453;-82
2022/10/12 00:46:30;;;;;;;26.33;20.27;;;11.20;96.20;;;11.39;82.73;98677.78;5131965;27;20445;-82
2022/10/12 00:49:07;;;;;;;27.93;21.33;;;11.20;96.00;;;11.21;83.51;98672.94;5122764;27;21020;-79
2022/10/12 00:51:38;;;;;;;23.73;20.33;;;11.10;96.80;;;11.22;83.40;98689.97;5131422;27;20869;-79
2022/10/12 00:54:11;;;;;;;23.20;20.47;;;11.00;97.00;;;11.25;83.29;98682.31;5129481;27;20461;-79
2022/10/12 00:56:42;;;;;;;26.67;20.57;;;11.00;97.80;;;11.37;82.74;98684.41;5131011;27;20460;-79
2022/10/12 00:59:17;;;;;;;21.83;19.23;;;11.10;97.70;;;11.35;83.25;98684.63;5117880;27;20466;-78
2022/10/12 01:01:44;;;;;;;27.10;19.37;;;11.10;98.50;;;10.99;83.82;98637.09;5120405;27;20445;-79
2022/10/12 01:04:11;;;;;;;23.27;19.57;;;11.10;96.70;;;11.03;83.90;98659.97;5127680;27;20474;-81
2022/10/12 01:06:41;;;;;;;28.33;20.30;;;11.10;96.30;;;11.20;84.01;98685.59;5126481;27;20450;-79
2022/10/12 01:09:08;;;;;;;23.03;18.87;;;11.00;97.10;;;11.23;83.13;98678.16;5119794;27;20456;-79
2022/10/12 01:11:35;;;;;;;22.43;19.13;;;11.10;96.90;;;10.91;82.91;98652.44;5128978;27;20500;-81
2022/10/12 01:14:03;;;;;;;22.67;18.67;;;11.00;96.70;;;11.16;82.66;98691.66;5128210;27;20514;-81
2022/10/12 01:16:38;;;;;;;24.90;19.50;;;11.00;96.40;;;11.05;83.43;98690.34;5130917;27;20816;-80
2022/10/12 01:19:25;;;;;;;23.97;19.60;;;10.90;96.30;;;10.97;83.58;98685.94;5122980;27;20502;-81
2022/10/12 01:22:01;;;;;;;24.70;20.30;;;10.90;96.50;;;10.98;83.78;98678.69;5129389;27;20462;-80
2022/10/12 01:24:44;;;;;;;27.60;20.30;;;10.80;97.10;;;11.01;84.09;98684.53;5127531;27;20484;-81
2022/10/12 01:27:38;;;;;;;24.83;18.97;;;10.80;97.40;;;11.14;83.18;98681.03;5138248;27;20542;-80
2022/10/12 01:30:20;;;;;;;24.27;19.33;;;10.90;97.50;;;11.00;82.56;98639.59;5133024;27;20449;-80
2022/10/12 01:33:20;;;;;;;25.33;19.10;;;11.00;96.50;;;11.19;82.70;98681.25;5123030;27;22823;-79
2022/10/12 01:35:58;;;;;;;23.00;17.87;;;11.00;95.90;;;11.05;82.62;98661.44;5125697;27;20993;-82
2022/10/12 01:38:37;;;;;;;23.73;17.50;;;11.00;95.60;;;11.07;82.67;98668.53;5123191;27;20496;-80
2022/10/12 01:41:11;;;;;;;24.53;19.03;;;11.00;95.90;;;11.20;82.51;98668.56;5126740;27;20540;-82
2022/10/12 01:43:42;;;;;;;23.33;18.63;;;11.00;95.80;;;10.99;83.32;98664.13;5126062;27;20455;-83
2022/10/12 01:46:53;;;;;;;24.43;18.60;;;11.00;95.90;;;11.09;82.46;98666.44;5120094;27;20446;-81
2022/10/12 01:49:25;;;;;;;25.20;18.70;;;11.00;95.90;;;10.97;83.47;98667.00;5117023;27;20465;-81
2022/10/12 01:52:11;;;;;;;21.93;17.87;;;10.90;96.00;;;10.84;82.86;98661.56;5124375;27;20507;-80
2022/10/12 01:54:57;;;;;;;25.73;18.87;;;10.90;95.60;;;11.08;82.67;98681.00;5121836;27;21051;-81
2022/10/12 01:57:35;;;;;;;30.83;19.60;;;10.90;95.90;;;11.06;82.21;98664.97;5120600;27;20453;-80
2022/10/12 02:00:08;;;;;;;21.90;16.67;;;10.90;95.50;;;11.10;82.20;98673.50;5132902;27;20444;-82
2022/10/12 02:02:49;;;;;;;21.43;18.57;;;10.90;95.20;;;10.97;82.85;98677.00;5123762;27;20526;-82
2022/10/12 02:05:27;;;;;;;27.33;18.80;;;10.90;95.40;;;10.99;82.55;98667.66;5123709;27;20467;-80
2022/10/12 02:08:05;;;;;;;21.80;19.50;;;10.90;95.40;;;10.88;82.71;98654.72;5125882;27;20453;-79
2022/10/12 02:10:40;;;;;;;21.27;18.07;;;10.80;95.30;;;10.93;nan;98668.47;5125872;28;20466;-80
2022/10/12 02:13:11;;;;;;;25.10;19.50;;;10.70;96.00;;;10.88;82.87;98673.66;5124531;28;20483;-79
2022/10/12 02:15:42;;;;;;;26.73;19.57;;;10.70;95.80;;;10.73;82.83;98657.56;5120763;28;21302;-80
2022/10/12 02:18:15;;;;;;;23.63;19.27;;;10.60;96.40;;;10.77;83.76;98667.78;5139813;27;21034;-81
2022/10/12 02:20:43;;;;;;;26.27;20.00;;;10.60;96.80;;;10.65;83.88;98673.97;5141212;27;21092;-83
2022/10/12 02:23:11;;;;;;;26.57;19.77;;;10.40;96.80;;;10.54;84.17;98664.53;5122885;28;20528;-81
2022/10/12 02:25:40;;;;;;;23.30;18.77;;;10.30;98.50;;;10.36;84.83;98665.84;5138100;27;20455;-80
2022/10/12 02:28:11;;;;;;;25.80;19.17;;;10.20;99.10;;;10.27;85.15;98653.56;5120848;27;20551;-79
2022/10/12 02:30:47;;;;;;;28.23;20.93;;;10.10;99.90;;;10.11;86.59;98668.19;5122580;27;20456;-79
2022/10/12 02:33:25;;;;;;;24.63;20.10;;;9.90;99.90;;;9.99;86.82;98665.19;5121444;28;20810;-80
2022/10/12 02:36:00;;;;;;;26.40;21.00;;;9.70;99.90;;;9.96;87.08;98655.59;5118279;28;20469;-79
2022/10/12 02:38:33;;;;;;;25.17;19.33;;;9.70;99.90;;;9.95;86.84;98642.31;5123673;27;20828;-80
2022/10/12 02:41:05;;;;;;;24.00;19.90;;;9.70;99.90;;;9.99;85.98;98646.28;5125250;27;20469;-81
2022/10/12 02:43:38;;;;;;;28.10;20.97;;;9.80;99.90;;;10.05;86.15;98653.59;5123226;28;20853;-81
2022/10/12 02:46:09;;;;;;;27.30;21.80;;;9.80;99.90;;;9.96;86.69;98654.78;5122248;28;20550;-82
2022/10/12 02:48:40;;;;;;;29.10;21.63;;;9.70;99.90;;;9.80;86.78;98655.91;5123117;27;20454;-81
2022/10/12 02:51:10;;;;;;;34.50;22.93;;;9.60;99.90;;;9.45;88.55;98651.22;5120153;28;20452;-80
2022/10/12 02:53:39;;;;;;;25.77;21.27;;;9.40;99.90;;;9.66;88.32;98666.56;5126019;28;20449;-81
2022/10/12 02:56:11;;;;;;;27.80;21.87;;;9.40;99.90;;;9.60;87.46;98662.78;5127495;28;20936;-80
2022/10/12 02:58:39;;;;;;;28.43;21.80;;;9.30;99.90;;;9.41;89.31;98674.22;5123379;27;20535;-80
2022/10/12 03:01:06;;;;;;;27.87;20.80;;;9.20;99.90;;;9.19;88.80;98639.16;5124270;28;20438;-80
2022/10/12 03:03:33;;;;;;;28.73;22.20;;;9.10;99.90;;;9.37;88.68;98667.53;5123368;27;20459;-81
2022/10/12 03:06:02;;;;;;;26.20;20.07;;;9.00;99.90;;;9.39;88.89;98660.91;5126841;27;20443;-82
2022/10/12 03:08:29;;;;;;;26.90;21.17;;;9.00;99.90;;;9.32;88.24;98654.63;5125361;27;20452;-82
2022/10/12 03:11:02;;;;;;;30.80;21.00;;;9.00;99.90;;;8.56;89.14;98546.22;5129236;27;20541;-81
2022/10/12 03:13:29;;;;;;;31.07;21.90;;;9.00;99.90;;;9.23;90.21;98661.16;5131479;27;20506;-82
2022/10/12 03:16:02;;;;;;;32.30;23.07;;;9.10;99.90;;;9.28;90.55;98662.25;5145297;27;20453;-80
2022/10/12 03:18:31;;;;;;;27.17;22.97;;;9.10;99.90;;;8.85;91.23;98600.19;5132675;27;20458;-80
2022/10/12 03:20:58;;;;;;;31.07;21.30;;;9.10;99.90;;;8.84;92.51;98630.88;5144281;27;21167;-80
2022/10/12 03:23:27;;;;;;;31.03;23.00;;;9.00;99.90;;;8.30;92.64;98560.16;5120192;27;20986;-81
2022/10/12 03:25:55;;;;;;;33.23;22.93;;;8.80;99.90;;;8.87;92.01;98662.81;5132124;27;20544;-81
2022/10/12 03:28:22;;;;;;;33.63;23.70;;;8.70;99.90;;;8.79;93.00;98661.91;5128962;27;20449;-80
2022/10/12 03:30:49;;;;;;;29.97;22.47;;;8.60;99.90;;;8.90;91.58;98665.16;5131836;27;20529;-79
2022/10/12 03:33:17;;;;;;;29.90;21.07;;;8.60;99.90;;;8.93;91.34;98662.09;5128425;27;20478;-82
2022/10/12 03:35:44;;;;;;;26.93;20.77;;;8.70;99.90;;;9.07;90.64;98654.97;5126511;27;20456;-80
2022/10/12 03:38:12;;;;;;;31.40;23.53;;;8.80;99.90;;;8.89;90.87;98639.25;5125415;27;20960;-80
2022/10/12 03:40:44;;;;;;;33.77;23.37;;;8.80;99.90;;;8.97;90.23;98657.16;5122501;27;20442;-82
2022/10/12 03:43:11;;;;;;;29.93;22.43;;;8.70;99.90;;;8.86;91.28;98661.16;5139781;27;20455;-82
2022/10/12 03:45:38;;;;;;;34.17;22.37;;;8.60;99.90;;;8.81;90.86;98658.19;5125842;27;20450;-80
2022/10/12 03:48:07;;;;;;;31.33;23.53;;;8.60;99.90;;;8.67;93.34;98658.03;5125865;27;20466;-80
2022/10/12 03:50:35;;;;;;;26.73;21.27;;;8.50;99.90;;;8.72;92.50;98660.16;5130663;27;20467;-82
2022/10/12 03:53:03;;;;;;;29.97;23.03;;;8.40;99.90;;;8.74;90.98;98658.97;5122587;27;20472;-81
2022/10/12 03:55:32;;;;;;;35.03;22.03;;;8.40;99.90;;;8.58;92.38;98659.97;5124142;27;20527;-80
2022/10/12 03:58:02;;;;;;;32.53;23.07;;;8.30;99.90;;;8.46;92.69;98646.13;5124836;27;20462;-79
2022/10/12 04:00:29;;;;;;;31.63;22.43;;;8.20;99.90;;;8.27;93.82;98646.69;5129790;27;20457;-79
2022/10/12 04:02:57;;;;;;;31.90;23.37;;;8.10;99.90;;;8.12;94.42;98623.28;5120268;27;20452;-80
2022/10/12 04:05:25;;;;;;;29.23;22.17;;;8.10;99.90;;;8.28;92.67;98637.59;5120830;27;20469;-80
2022/10/12 04:07:53;;;;;;;30.83;22.70;;;8.10;99.90;;;8.37;92.45;98658.00;5137278;27;20458;-79
2022/10/12 04:10:20;;;;;;;33.10;23.07;;;8.10;99.90;;;8.31;91.82;98643.41;5124292;27;20452;-80
2022/10/12 04:12:47;;;;;;;34.63;22.50;;;8.10;99.90;;;8.20;92.19;98633.97;5123275;27;20476;-80
2022/10/12 04:15:17;;;;;;;33.90;22.67;;;8.10;99.90;;;8.20;93.53;98660.06;5122229;27;20451;-81
2022/10/12 04:17:45;;;;;;;28.20;22.27;;;8.00;99.90;;;8.35;92.04;98654.66;5131392;27;20820;-79
2022/10/12 04:20:13;;;;;;;31.63;22.27;;;8.10;99.90;;;8.21;92.24;98627.56;5135613;27;20443;-80
2022/10/12 04:22:40;;;;;;;28.17;22.77;;;8.10;99.90;;;8.22;91.94;98650.75;5131045;27;20459;-80
2022/10/12 04:25:09;;;;;;;32.73;23.73;;;8.10;99.90;;;8.16;93.50;98647.97;5130092;27;20510;-82
2022/10/12 04:27:36;;;;;;;31.13;23.03;;;8.00;99.90;;;8.24;92.45;98653.28;5134400;27;20457;-84
2022/10/12 04:30:05;;;;;;;30.87;22.20;;;8.00;99.90;;;8.28;92.56;98653.75;5125679;27;20988;-84
2022/10/12 04:32:34;;;;;;;32.97;23.53;;;8.10;99.90;;;8.19;93.75;98640.38;5128992;27;20469;-84
2022/10/12 04:35:01;;;;;;;31.43;24.20;;;8.10;99.90;;;7.92;93.58;98618.44;5142271;27;20465;-83
2022/10/12 04:37:28;;;;;;;33.70;22.97;;;8.00;99.90;;;8.12;94.19;98660.97;5154473;27;20809;-81
2022/10/12 04:39:55;;;;;;;36.10;24.10;;;7.90;99.90;;;8.11;93.63;98664.66;5139665;27;20442;-78
2022/10/12 04:42:23;;;;;;;30.47;23.00;;;7.90;99.90;;;8.13;92.81;98654.56;5150246;27;20469;-77
2022/10/12 04:44:50;;;;;;;26.60;20.53;;;7.90;99.90;;;8.22;92.55;98661.53;5156502;27;20450;-76
2022/10/12 04:47:19;;;;;;;37.03;22.30;;;7.90;99.90;;;7.81;92.79;98610.81;5136300;27;21021;-76
2022/10/12 04:49:50;;;;;;;28.70;21.40;;;7.90;99.90;;;8.10;93.10;98663.00;5132420;27;20425;-76
2022/10/12 04:52:17;;;;;;;28.60;22.00;;;7.90;99.90;;;8.13;93.35;98651.88;5141377;27;20559;-76
2022/10/12 04:54:45;;;;;;;38.47;23.70;;;8.00;99.90;;;8.12;92.55;98660.97;5133513;27;20525;-76
2022/10/12 04:57:12;;;;;;;36.70;24.17;;;7.90;99.90;;;8.05;93.51;98668.09;5127872;27;20935;-77
2022/10/12 04:59:39;;;;;;;35.10;24.57;;;7.80;99.90;;;8.10;93.35;98654.91;5124122;27;21100;-75
2022/10/12 05:02:06;;;;;;;36.20;23.50;;;7.90;99.90;;;8.22;93.31;98666.91;5123387;27;20458;-83
2022/10/12 05:04:33;;;;;;;32.73;24.10;;;8.00;99.90;;;7.99;93.24;98637.38;5118323;27;20474;-77
2022/10/12 05:07:02;;;;;;;36.00;25.23;;;7.90;99.90;;;8.16;93.78;98664.97;5122362;27;20456;-77
2022/10/12 05:09:30;;;;;;;40.43;25.50;;;8.00;99.90;;;8.38;93.76;98665.06;5135599;27;20460;-74
2022/10/12 05:11:57;;;;;;;32.50;23.77;;;8.10;99.90;;;8.44;94.35;98680.50;5131817;27;20458;-76
2022/10/12 05:14:25;;;;;;;36.03;25.93;;;8.20;99.90;;;8.52;94.31;98670.66;5124963;27;20986;-76
2022/10/12 05:16:52;;;;;;;36.83;25.67;;;8.30;99.90;;;8.60;95.14;98667.88;5138606;27;20459;-79
2022/10/12 05:19:19;;;;;;;36.10;25.20;;;8.30;99.90;;;8.78;95.42;98676.41;5116379;27;20459;-81
2022/10/12 05:21:46;;;;;;;32.23;25.33;;;8.50;99.90;;;8.91;94.82;98674.91;5128844;27;20859;-81
2022/10/12 05:24:15;;;;;;;36.03;25.90;;;8.60;99.90;;;9.20;94.86;98673.19;5118054;27;20975;-77
2022/10/12 05:26:42;;;;;;;35.53;26.63;;;8.90;99.90;;;9.39;94.61;98681.66;5130920;27;20466;-81
2022/10/12 05:29:10;;;;;;;34.20;24.30;;;9.10;99.90;;;9.37;93.31;98646.78;5114463;27;20452;-79
2022/10/12 05:31:37;;;;;;;33.47;23.57;;;9.20;99.90;;;9.58;92.92;98675.63;5138448;27;20552;-79
2022/10/12 05:34:04;;;;;;;32.37;23.00;;;9.40;99.90;;;9.54;92.51;98668.97;5108988;27;20471;-82
2022/10/12 05:36:32;;;;;;;27.07;22.00;;;9.40;99.90;;;9.67;91.86;98687.13;5136230;27;20454;-79
2022/10/12 05:38:59;;;;;;;26.77;23.20;;;9.50;99.90;;;9.72;91.40;98686.56;5134405;27;20446;-79
2022/10/12 05:41:28;;;;;;;29.27;22.20;;;9.50;99.90;;;9.74;90.56;98681.78;5118334;27;20456;-80
2022/10/12 05:43:55;;;;;;;28.87;20.90;;;9.60;99.90;;;9.56;90.13;98672.28;5119197;27;20446;-80
2022/10/12 05:46:22;;;;;;;30.27;21.83;;;9.50;99.90;;;9.70;90.87;98689.44;5136517;27;20473;-79
2022/10/12 05:48:50;;;;;;;29.73;23.07;;;9.50;99.90;;;9.64;89.76;98656.00;5118569;27;20453;-80
2022/10/12 05:51:17;;;;;;;27.53;22.70;;;9.60;99.90;;;9.96;89.96;98688.00;5118873;27;20469;-77
2022/10/12 05:53:44;;;;;;;30.17;20.73;;;9.70;99.90;;;9.95;88.72;98702.53;5114998;27;20526;-80
2022/10/12 05:56:12;;;;;;;23.70;21.13;;;9.70;99.90;;;9.87;88.98;98684.59;5118653;27;20463;-80
2022/10/12 05:58:41;;;;;;;23.77;21.23;;;9.60;99.90;;;9.82;89.20;98692.47;5108861;27;20459;-80
2022/10/12 06:01:11;;;;;;;25.33;19.77;;;9.60;99.90;;;9.99;87.33;98675.97;5129502;27;20535;-82
2022/10/12 06:03:39;;;;;;;28.37;20.27;;;9.70;99.90;;;9.91;86.77;98650.78;5117496;27;20565;-81
2022/10/12 06:06:07;;;;;;;26.67;20.40;;;9.80;99.90;;;10.09;86.96;98699.94;5134601;27;20447;-81
2022/10/12 06:08:35;;;;;;;21.97;18.50;;;9.90;99.90;;;10.08;86.88;98691.00;5119766;27;20959;-81
2022/10/12 06:11:03;;;;;;;24.57;18.60;;;9.90;99.90;;;10.18;86.99;98696.91;5121758;27;20790;-80
2022/10/12 06:13:30;;;;;;;23.83;18.93;;;9.90;99.90;;;10.12;86.75;98681.50;5111644;28;21020;-79
2022/10/12 06:15:59;;;;;;;23.50;17.00;;;9.90;99.90;;;10.29;85.95;98692.00;5111511;27;20469;-80
2022/10/12 06:18:26;;;;;;;25.00;19.43;;;10.00;99.90;;;10.21;85.25;98691.09;5124104;27;20441;-79
2022/10/12 06:20:55;;;;;;;22.03;17.87;;;10.00;99.90;;;10.38;85.83;98696.19;5129572;27;20447;-81
2022/10/12 06:23:23;;;;;;;25.40;18.20;;;10.10;99.90;;;10.53;84.35;98696.13;5116707;28;20533;-80
2022/10/12 06:25:51;;;;;;;19.13;15.67;;;10.20;99.90;;;10.23;83.99;98687.38;5121522;28;20472;-81
2022/10/12 06:28:20;;;;;;;20.77;17.80;;;10.20;97.40;;;10.31;83.79;98687.22;5117190;27;21040;-76
2022/10/12 06:30:53;;;;;;;24.77;16.87;;;10.10;97.70;;;10.09;84.59;98698.09;5114678;27;20451;-76
2022/10/12 06:33:21;;;;;;;24.20;17.90;;;10.10;97.20;;;10.30;84.02;98691.78;5118636;28;20474;-76
2022/10/12 06:35:48;;;;;;;21.73;17.00;;;10.10;97.60;;;10.47;82.76;98697.75;5128713;27;20515;-76
2022/10/12 06:38:16;;;;;;;20.73;16.63;;;10.20;96.70;;;10.66;83.31;98698.06;5109686;27;20495;-76
2022/10/12 06:40:44;;;;;;;22.97;16.10;;;10.30;98.00;;;10.33;83.82;98695.97;5116490;28;20520;-77
2022/10/12 06:43:11;;;;;;;25.07;16.20;;;10.40;95.60;;;10.31;83.95;98695.31;5120250;27;20952;-77
2022/10/12 06:45:39;;;;;;;20.83;17.00;;;10.40;95.40;;;10.57;83.17;98699.28;5119139;27;20464;-77
2022/10/12 06:48:08;;;;;;;31.93;18.03;;;10.40;96.30;;;10.43;82.26;98645.16;5132308;27;20906;-77
2022/10/12 06:50:37;;;;;;;21.13;17.10;;;10.50;95.60;;;10.86;81.41;98705.47;5126728;27;20486;-77
2022/10/12 06:53:04;;;;;;;20.20;17.10;;;10.60;95.10;;;11.02;80.96;98710.53;5122383;27;20479;-76
2022/10/12 06:55:31;;;;;;;21.37;16.73;;;10.70;94.50;;;11.14;80.54;98709.94;5130260;27;20554;-77
2022/10/12 06:57:59;;;;;;;20.57;16.97;;;10.80;94.40;;;11.25;80.59;98706.66;5118266;27;20464;-77
2022/10/12 07:00:26;;;;;;;19.90;17.30;;;11.00;94.40;;;11.31;78.93;98710.41;5122287;27;20542;-78
2022/10/12 07:02:54;;;;;;;17.33;15.53;;;11.10;93.00;;;11.15;79.68;98712.44;5119098;27;21038;-76
2022/10/12 07:05:21;;;;;;;19.43;15.77;;;11.00;92.30;;;11.47;78.68;98714.63;5122322;27;20485;-77
2022/10/12 07:07:49;;;;;;;21.10;17.00;;;11.20;92.50;;;11.29;79.01;98716.00;5119814;27;20819;-76
2022/10/12 07:10:17;;;;;;;21.20;16.97;;;11.30;91.70;;;11.42;79.62;98711.69;5136721;27;20456;-79
2022/10/12 07:12:45;;;;;;;26.07;17.33;;;11.30;92.50;;;11.65;78.53;98715.91;5120549;27;20472;-77
2022/10/12 07:15:13;;;;;;;19.93;17.03;;;11.40;92.10;;;11.98;77.19;98723.25;5123192;27;20450;-76
2022/10/12 07:17:40;;;;;;;17.73;15.30;;;11.60;91.60;;;12.17;76.44;98719.72;5126834;27;20468;-78
2022/10/12 07:20:08;;;;;;;17.93;15.30;;;11.80;91.00;;;12.25;75.61;98717.88;5123768;27;20463;-78
2022/10/12 07:22:35;;;;;;;19.13;15.70;;;11.90;90.40;;;12.11;76.00;98720.56;5133783;27;20543;-77
2022/10/12 07:25:05;;;;;;;20.00;14.93;;;11.90;90.20;;;12.12;76.16;98715.97;5146770;27;20826;-77
2022/10/12 07:27:32;;;;;;;20.07;15.33;;;11.90;90.10;;;11.86;76.94;98723.84;5122831;27;20460;-77
2022/10/12 07:29:59;;;;;;;18.90;15.37;;;11.90;90.00;;;12.29;76.13;98721.81;5111786;27;20483;-77
2022/10/12 07:32:26;;;;;;;26.07;15.23;;;12.00;90.30;;;12.44;74.66;98721.63;5116271;27;20472;-77
2022/10/12 07:34:54;;;;;;;20.73;14.57;;;12.20;89.20;;;12.43;74.90;98720.75;5134294;27;20483;-77
2022/10/12 07:37:21;;;;;;;15.90;14.20;;;12.20;89.00;;;12.31;75.21;98714.31;5134740;27;20465;-75
2022/10/12 07:39:48;;;;;;;18.67;13.77;;;12.20;88.50;;;12.16;75.43;98728.91;5122707;27;20462;-78
2022/10/12 07:42:17;;;;;;;17.50;14.23;;;12.20;88.30;;;12.09;75.36;98710.97;5118069;27;20528;-79
2022/10/12 07:44:45;;;;;;;16.80;14.90;;;12.20;88.00;;;12.44;74.96;98713.47;5115539;27;20750;-79
2022/10/12 07:47:12;;;;;;;17.90;14.30;;;12.20;88.20;;;12.70;73.52;98720.72;5121694;27;20460;-79
2022/10/12 07:49:39;;;;;;;19.73;14.67;;;12.40;87.80;;;12.26;74.49;98700.56;5112022;27;20499;-77
2022/10/12 07:52:06;;;;;;;18.30;15.90;;;12.40;87.10;;;12.52;74.69;98717.84;5119496;27;20521;-81
2022/10/12 07:54:33;;;;;;;17.10;14.70;;;12.40;87.60;;;12.71;73.32;98713.41;5108937;27;20486;-77
2022/10/12 07:57:01;;;;;;;16.27;13.43;;;12.60;87.20;;;12.65;73.53;98717.78;5113103;27;20462;-80
2022/10/12 07:59:29;;;;;;;22.30;15.67;;;12.60;86.80;;;12.70;72.07;98668.38;5133486;27;20465;-81
2022/10/12 08:01:56;;;;;;;19.13;14.53;;;12.80;86.60;;;12.82;72.64;98699.19;5114786;27;21015;-82
2022/10/12 08:04:24;;;;;;;15.93;14.23;;;12.80;86.40;;;13.16;71.83;98715.38;5123922;27;21193;-81
2022/10/12 08:06:51;;;;;;;19.20;14.00;;;12.90;86.40;;;13.04;72.23;98707.88;5127544;27;20463;-80
2022/10/12 08:09:18;;;;;;;17.43;15.57;;;12.90;86.20;;;13.18;71.83;98716.78;5134671;27;20446;-81
2022/10/12 08:11:46;;;;;;;21.50;14.97;;;12.90;86.10;;;13.06;72.55;98709.56;5132054;27;20524;-78
2022/10/12 08:14:15;;;;;;;16.90;14.90;;;12.90;86.30;;;13.39;70.40;98705.84;5123391;27;20509;-80
2022/10/12 08:16:45;;;;;;;19.07;14.77;;;13.10;85.80;;;13.20;70.83;98699.50;5141143;27;20461;-79
2022/10/12 08:19:12;;;;;;;21.07;16.70;;;13.10;85.30;;;12.85;72.59;98700.66;5118831;27;20524;-81
2022/10/12 08:21:41;;;;;;;17.50;14.90;;;12.90;85.50;;;12.82;73.04;98701.09;5125754;27;20482;-82
2022/10/12 08:24:08;;;;;;;16.93;15.03;;;12.80;86.10;;;12.45;73.98;98682.63;5123545;27;20453;-78
2022/10/12 08:26:36;;;;;;;20.20;15.30;;;12.60;86.20;;;12.60;73.80;98696.78;5121880;27;20477;-83
2022/10/12 08:29:05;;;;;;;19.67;15.60;;;12.60;86.50;;;12.78;73.82;98699.84;5130435;27;20448;-81
2022/10/12 08:31:32;;;;;;;19.37;16.40;;;12.60;87.00;;;13.10;72.71;98705.34;5113206;27;20548;-83
2022/10/12 08:34:01;;;;;;;18.40;15.07;;;12.80;86.90;;;13.48;71.99;98701.03;5116926;27;20992;-83
2022/10/12 08:36:28;;;;;;;17.40;14.20;;;13.00;86.90;;;13.80;71.20;98704.59;5120816;27;20464;-80
2022/10/12 08:38:55;;;;;;;16.30;14.70;;;13.30;86.80;;;13.79;70.92;98697.50;5119560;27;20452;-80
2022/10/12 08:41:46;;;;;;;19.50;16.43;;;13.40;86.20;;;13.69;71.39;98687.13;5121954;27;20570;-81
2022/10/12 08:44:44;;;;;;;19.53;16.80;;;13.40;86.20;;;13.72;71.50;98685.84;5122152;27;20549;-80
2022/10/12 08:47:17;;;;;;;25.77;15.10;;;13.50;86.10;;;14.08;70.08;98694.34;5121059;27;20457;-79
2022/10/12 08:49:47;;;;;;;21.03;17.20;;;13.60;85.90;;;14.04;70.06;98688.53;5137769;27;20874;-80
2022/10/12 08:52:27;;;;;;;20.50;18.30;;;13.80;85.80;;;13.72;71.09;98677.69;5124058;27;20467;-80
2022/10/12 08:55:00;;;;;;;22.87;16.37;;;13.80;85.60;;;13.53;72.06;98687.66;5121876;27;20518;-80
2022/10/12 08:57:27;;;;;;;20.50;16.20;;;13.60;85.60;;;13.75;72.02;98685.41;5119779;27;20803;-79
2022/10/12 08:59:54;;;;;;;22.77;18.37;;;13.50;86.00;;;13.56;71.95;98682.59;5132877;27;20518;-80
2022/10/12 09:02:49;;;;;;;23.40;17.90;;;13.60;86.00;;;13.74;71.96;98681.84;5128373;27;20462;-77
2022/10/12 09:05:27;;;;;;;22.87;17.77;;;13.60;86.00;;;13.91;70.65;98645.19;5118104;27;20478;-82
2022/10/12 09:07:59;;;;;;;27.00;18.70;;;13.70;86.10;;;14.22;69.66;98678.78;5122339;27;21090;-81
2022/10/12 09:10:42;;;;;;;22.10;17.13;;;13.90;85.50;;;14.13;70.09;98681.75;5136320;27;20478;-82
2022/10/12 09:13:24;;;;;;;21.87;16.63;;;14.00;85.20;;;14.24;69.94;98682.09;5120512;27;20525;-83
2022/10/12 09:15:57;;;;;;;19.40;16.70;;;14.00;85.50;;;14.32;70.42;98673.63;5108487;27;21198;-81
2022/10/12 09:18:36;;;;;;;18.90;16.60;;;14.00;85.90;;;14.38;70.44;98689.06;5119699;27;20456;-80
2022/10/12 09:21:07;;;;;;;17.43;15.53;;;14.10;85.60;;;14.42;70.43;98682.13;5126775;27;20822;-81
2022/10/12 09:23:41;;;;;;;25.47;16.97;;;14.10;85.60;;;14.42;70.60;98684.03;5121713;27;20461;-80
2022/10/12 09:26:17;;;;;;;19.17;16.30;;;14.10;85.70;;;14.75;68.98;98682.03;5116577;27;20958;-80
2022/10/12 09:28:45;;;;;;;20.77;16.77;;;14.30;85.50;;;14.49;69.38;98651.34;5110088;27;20465;-80
2022/10/12 09:31:43;;;;;;;21.57;18.13;;;14.40;85.40;;;14.85;68.53;98691.31;5127556;27;20953;-79
2022/10/12 09:34:11;;;;;;;19.43;16.40;;;14.50;85.10;;;15.00;68.43;98688.22;5111566;27;20505;-82
2022/10/12 09:36:41;;;;;;;23.20;18.47;;;14.60;85.00;;;14.84;69.12;98692.38;5135944;27;21309;-81
2022/10/12 09:39:16;;;;;;;21.73;17.70;;;14.60;85.00;;;14.70;69.60;98691.66;5121762;27;20530;-80
2022/10/12 09:41:46;;;;;;;20.77;18.57;;;14.70;85.00;;;14.56;69.59;98692.88;5133046;27;20457;-80
2022/10/12 09:44:21;;;;;;;19.50;17.50;;;14.60;84.80;;;14.57;69.85;98689.09;5117484;27;20477;-80
2022/10/12 09:46:56;;;;;;;22.67;18.10;;;14.40;85.30;;;14.76;69.71;98683.69;5119904;27;20454;-79
2022/10/12 09:49:39;;;;;;;21.93;17.57;;;14.60;85.30;;;14.64;69.94;98684.44;5123599;27;20456;-79
2022/10/12 09:52:09;;;;;;;21.00;18.50;;;14.60;85.10;;;14.69;69.91;98692.72;5119324;27;20450;-80
2022/10/12 09:54:41;;;;;;;27.77;19.37;;;14.60;85.10;;;14.86;69.12;98676.69;5119121;27;20478;-80
2022/10/12 09:57:08;;;;;;;21.43;18.60;;;14.60;84.90;;;15.19;68.07;98679.22;5131736;27;20510;-77
2022/10/12 09:59:39;;;;;;;22.90;17.03;;;14.80;84.90;;;14.99;69.09;98662.06;5132163;27;20443;-77
2022/10/12 10:02:15;;;;;;;21.23;18.67;;;14.90;85.30;;;14.71;69.49;98679.75;5121234;27;20441;-79
2022/10/12 10:04:45;;;;;;;23.00;18.57;;;14.70;84.60;;;14.97;69.44;98675.06;5120476;27;20475;-79
2022/10/12 10:07:27;;;;;;;21.20;17.60;;;14.90;85.00;;;15.43;68.03;98667.34;5102266;28;20457;-80
2022/10/12 10:10:17;;;;;;;21.80;17.53;;;15.00;84.70;;;15.70;66.80;98680.56;5118504;27;20983;-80
2022/10/12 10:12:50;;;;;;;21.20;18.10;;;15.20;84.40;;;15.72;66.35;98672.19;5112612;28;20858;-77
2022/10/12 10:15:28;;;;;;;19.60;17.53;;;15.30;83.90;;;15.75;66.36;98663.53;5115680;28;20484;-79
2022/10/12 10:17:59;;;;;;;27.17;19.73;;;15.40;84.00;;;15.74;66.61;98678.22;5116795;27;20461;-79
2022/10/12 10:20:39;;;;;;;22.70;17.63;;;15.50;84.10;;;15.61;67.07;98667.53;5118041;28;20461;-80
2022/10/12 10:23:24;;;;;;;20.50;17.63;;;15.50;83.80;;;15.71;66.88;98674.06;5128888;27;21031;-76
2022/10/12 10:25:57;;;;;;;22.60;17.40;;;15.40;84.00;;;15.86;66.14;98673.63;5110928;28;20454;-79